METARs

EEEI - Ämari Air Base

EEEI 180850Z 27010KT CAVOK 20/12 Q1017 NOSIG

EEKA - Kärdla

EEKA 181450Z 27009KT 200V320 CAVOK 21/10 Q1018

EEKE - Kuressaare

EEKE 190150Z AUTO 21005KT 190V250 9999NDV NCD 16/14 Q1017

EEPU - Pärnu

EEPU 181250Z 23009KT 200V270 CAVOK 23/14 Q1018

EETN - Lennart Meri Tallinn

EETN 190150Z VRB02KT CAVOK 12/11 Q1017

EETU - Tartu

EETU 190150Z 23001KT 9999 MIFG NSC 11/10 Q1018

Sign In

ATC Booking

currently no ATC Bookings...